sensor_id;sensor_type;location;lat;lon;timestamp;P1;durP1;ratioP1;P2;durP2;ratioP2
68825;SDS011;55841;53.392;10.086;2022-11-20T00:01:10;9.48;;;3.10;;
68825;SDS011;55841;53.392;10.086;2022-11-20T00:03:40;10.45;;;3.38;;
68825;SDS011;55841;53.392;10.086;2022-11-20T00:06:07;11.45;;;3.90;;
68825;SDS011;55841;53.392;10.086;2022-11-20T00:08:34;13.10;;;4.25;;
68825;SDS011;55841;53.392;10.086;2022-11-20T00:11:09;14.23;;;4.18;;
68825;SDS011;55841;53.392;10.086;2022-11-20T00:13:36;10.95;;;4.07;;
68825;SDS011;55841;53.392;10.086;2022-11-20T00:16:03;10.05;;;3.30;;
68825;SDS011;55841;53.392;10.086;2022-11-20T00:18:30;10.00;;;3.38;;
68825;SDS011;55841;53.392;10.086;2022-11-20T00:21:05;10.73;;;3.50;;
68825;SDS011;55841;53.392;10.086;2022-11-20T00:23:32;12.75;;;3.67;;
68825;SDS011;55841;53.392;10.086;2022-11-20T00:26:02;9.60;;;3.30;;
68825;SDS011;55841;53.392;10.086;2022-11-20T00:28:28;11.35;;;3.45;;
68825;SDS011;55841;53.392;10.086;2022-11-20T00:30:59;12.27;;;3.88;;
68825;SDS011;55841;53.392;10.086;2022-11-20T00:33:30;10.38;;;3.80;;
68825;SDS011;55841;53.392;10.086;2022-11-20T00:35:59;10.50;;;3.78;;
68825;SDS011;55841;53.392;10.086;2022-11-20T00:38:26;11.65;;;3.55;;
68825;SDS011;55841;53.392;10.086;2022-11-20T00:40:55;11.23;;;3.95;;
68825;SDS011;55841;53.392;10.086;2022-11-20T00:43:21;13.98;;;4.22;;
68825;SDS011;55841;53.392;10.086;2022-11-20T00:45:47;10.70;;;3.50;;
68825;SDS011;55841;53.392;10.086;2022-11-20T00:48:12;11.48;;;3.75;;
68825;SDS011;55841;53.392;10.086;2022-11-20T00:50:38;12.25;;;3.97;;
68825;SDS011;55841;53.392;10.086;2022-11-20T00:53:05;10.75;;;3.92;;
68825;SDS011;55841;53.392;10.086;2022-11-20T00:55:31;10.65;;;3.83;;
68825;SDS011;55841;53.392;10.086;2022-11-20T00:57:56;10.75;;;3.97;;
68825;SDS011;55841;53.392;10.086;2022-11-20T01:00:22;10.73;;;4.10;;
68825;SDS011;55841;53.392;10.086;2022-11-20T01:02:47;11.98;;;4.20;;
68825;SDS011;55841;53.392;10.086;2022-11-20T01:05:13;11.63;;;3.80;;
68825;SDS011;55841;53.392;10.086;2022-11-20T01:07:38;11.57;;;4.05;;
68825;SDS011;55841;53.392;10.086;2022-11-20T01:10:04;13.52;;;4.30;;
68825;SDS011;55841;53.392;10.086;2022-11-20T01:12:30;9.00;;;3.58;;
68825;SDS011;55841;53.392;10.086;2022-11-20T01:14:55;15.25;;;4.32;;
68825;SDS011;55841;53.392;10.086;2022-11-20T01:17:21;9.88;;;3.63;;
68825;SDS011;55841;53.392;10.086;2022-11-20T01:19:48;12.40;;;3.90;;
68825;SDS011;55841;53.392;10.086;2022-11-20T01:22:16;13.52;;;4.25;;
68825;SDS011;55841;53.392;10.086;2022-11-20T01:24:42;11.40;;;3.78;;
68825;SDS011;55841;53.392;10.086;2022-11-20T01:27:07;12.15;;;3.90;;
68825;SDS011;55841;53.392;10.086;2022-11-20T01:29:33;11.98;;;3.78;;
68825;SDS011;55841;53.392;10.086;2022-11-20T01:31:58;10.88;;;4.07;;
68825;SDS011;55841;53.392;10.086;2022-11-20T01:34:24;11.52;;;3.78;;
68825;SDS011;55841;53.392;10.086;2022-11-20T01:36:50;12.57;;;3.55;;
68825;SDS011;55841;53.392;10.086;2022-11-20T01:39:17;10.73;;;3.63;;
68825;SDS011;55841;53.392;10.086;2022-11-20T01:41:48;12.60;;;4.20;;
68825;SDS011;55841;53.392;10.086;2022-11-20T01:44:18;13.00;;;3.85;;
68825;SDS011;55841;53.392;10.086;2022-11-20T01:46:52;12.40;;;3.95;;
68825;SDS011;55841;53.392;10.086;2022-11-20T01:52:07;12.35;;;3.78;;
68825;SDS011;55841;53.392;10.086;2022-11-20T01:54:58;8.80;;;3.15;;
68825;SDS011;55841;53.392;10.086;2022-11-20T01:57:28;12.23;;;3.50;;
68825;SDS011;55841;53.392;10.086;2022-11-20T02:00:02;10.88;;;3.85;;
68825;SDS011;55841;53.392;10.086;2022-11-20T02:02:32;10.93;;;4.25;;
68825;SDS011;55841;53.392;10.086;2022-11-20T02:04:58;10.13;;;3.42;;
68825;SDS011;55841;53.392;10.086;2022-11-20T02:07:29;12.50;;;4.10;;
68825;SDS011;55841;53.392;10.086;2022-11-20T02:09:55;10.30;;;3.97;;
68825;SDS011;55841;53.392;10.086;2022-11-20T02:12:21;12.43;;;4.07;;
68825;SDS011;55841;53.392;10.086;2022-11-20T02:14:46;11.75;;;3.70;;
68825;SDS011;55841;53.392;10.086;2022-11-20T02:17:12;10.48;;;3.38;;
68825;SDS011;55841;53.392;10.086;2022-11-20T02:19:37;10.40;;;3.75;;
68825;SDS011;55841;53.392;10.086;2022-11-20T02:24:35;10.10;;;3.33;;
68825;SDS011;55841;53.392;10.086;2022-11-20T02:27:10;9.30;;;3.20;;
68825;SDS011;55841;53.392;10.086;2022-11-20T02:30:23;8.43;;;3.03;;
68825;SDS011;55841;53.392;10.086;2022-11-20T02:32:29;9.10;;;3.15;;
68825;SDS011;55841;53.392;10.086;2022-11-20T02:34:56;7.53;;;2.95;;
68825;SDS011;55841;53.392;10.086;2022-11-20T02:37:22;8.68;;;2.97;;
68825;SDS011;55841;53.392;10.086;2022-11-20T02:39:48;10.45;;;3.33;;
68825;SDS011;55841;53.392;10.086;2022-11-20T02:42:16;11.02;;;2.95;;
68825;SDS011;55841;53.392;10.086;2022-11-20T02:44:41;9.65;;;3.17;;
68825;SDS011;55841;53.392;10.086;2022-11-20T02:47:07;11.43;;;3.58;;
68825;SDS011;55841;53.392;10.086;2022-11-20T02:49:32;10.80;;;3.33;;
68825;SDS011;55841;53.392;10.086;2022-11-20T02:51:58;10.70;;;2.97;;
68825;SDS011;55841;53.392;10.086;2022-11-20T02:54:24;9.30;;;3.03;;
68825;SDS011;55841;53.392;10.086;2022-11-20T02:56:50;9.45;;;3.47;;
68825;SDS011;55841;53.392;10.086;2022-11-20T02:59:15;8.60;;;3.17;;
68825;SDS011;55841;53.392;10.086;2022-11-20T03:01:41;13.00;;;3.67;;
68825;SDS011;55841;53.392;10.086;2022-11-20T03:04:06;8.95;;;2.92;;
68825;SDS011;55841;53.392;10.086;2022-11-20T03:06:32;10.27;;;3.38;;
68825;SDS011;55841;53.392;10.086;2022-11-20T03:08:57;9.95;;;3.60;;
68825;SDS011;55841;53.392;10.086;2022-11-20T03:11:23;12.05;;;3.35;;
68825;SDS011;55841;53.392;10.086;2022-11-20T03:13:48;11.80;;;3.40;;
68825;SDS011;55841;53.392;10.086;2022-11-20T03:16:16;9.43;;;3.15;;
68825;SDS011;55841;53.392;10.086;2022-11-20T03:18:43;9.00;;;3.28;;
68825;SDS011;55841;53.392;10.086;2022-11-20T03:21:10;9.30;;;3.17;;
68825;SDS011;55841;53.392;10.086;2022-11-20T03:23:37;8.02;;;3.05;;
68825;SDS011;55841;53.392;10.086;2022-11-20T03:26:07;9.10;;;2.90;;
68825;SDS011;55841;53.392;10.086;2022-11-20T03:28:35;9.10;;;2.92;;
68825;SDS011;55841;53.392;10.086;2022-11-20T03:31:08;7.63;;;2.97;;
68825;SDS011;55841;53.392;10.086;2022-11-20T03:36:01;9.20;;;3.08;;
68825;SDS011;55841;53.392;10.086;2022-11-20T03:38:28;12.13;;;3.30;;
68825;SDS011;55841;53.392;10.086;2022-11-20T03:41:00;11.15;;;3.30;;
68825;SDS011;55841;53.392;10.086;2022-11-20T03:43:27;7.88;;;2.90;;
68825;SDS011;55841;53.392;10.086;2022-11-20T03:45:52;12.70;;;3.10;;
68825;SDS011;55841;53.392;10.086;2022-11-20T03:48:18;10.13;;;3.30;;
68825;SDS011;55841;53.392;10.086;2022-11-20T03:50:43;9.52;;;2.92;;
68825;SDS011;55841;53.392;10.086;2022-11-20T03:53:09;10.30;;;3.67;;
68825;SDS011;55841;53.392;10.086;2022-11-20T03:55:34;8.63;;;2.95;;
68825;SDS011;55841;53.392;10.086;2022-11-20T03:58:00;9.05;;;3.10;;
68825;SDS011;55841;53.392;10.086;2022-11-20T04:00:25;10.50;;;3.05;;
68825;SDS011;55841;53.392;10.086;2022-11-20T04:02:51;8.77;;;2.90;;
68825;SDS011;55841;53.392;10.086;2022-11-20T04:05:16;10.68;;;3.08;;
68825;SDS011;55841;53.392;10.086;2022-11-20T04:07:42;9.55;;;2.92;;
68825;SDS011;55841;53.392;10.086;2022-11-20T04:10:07;8.38;;;3.03;;
68825;SDS011;55841;53.392;10.086;2022-11-20T04:12:33;10.70;;;3.33;;
68825;SDS011;55841;53.392;10.086;2022-11-20T04:14:58;9.82;;;3.30;;
68825;SDS011;55841;53.392;10.086;2022-11-20T04:17:24;10.73;;;3.47;;
68825;SDS011;55841;53.392;10.086;2022-11-20T04:19:49;12.50;;;3.35;;
68825;SDS011;55841;53.392;10.086;2022-11-20T04:22:15;11.55;;;3.30;;
68825;SDS011;55841;53.392;10.086;2022-11-20T04:24:40;9.00;;;2.85;;
68825;SDS011;55841;53.392;10.086;2022-11-20T04:27:06;10.20;;;3.25;;
68825;SDS011;55841;53.392;10.086;2022-11-20T04:29:31;7.63;;;3.00;;
68825;SDS011;55841;53.392;10.086;2022-11-20T04:31:57;8.35;;;3.03;;
68825;SDS011;55841;53.392;10.086;2022-11-20T04:34:22;8.98;;;2.95;;
68825;SDS011;55841;53.392;10.086;2022-11-20T04:36:48;9.90;;;3.28;;
68825;SDS011;55841;53.392;10.086;2022-11-20T04:39:13;11.77;;;3.72;;
68825;SDS011;55841;53.392;10.086;2022-11-20T04:41:39;11.20;;;3.13;;
68825;SDS011;55841;53.392;10.086;2022-11-20T04:44:05;9.52;;;3.70;;
68825;SDS011;55841;53.392;10.086;2022-11-20T04:46:34;11.45;;;3.50;;
68825;SDS011;55841;53.392;10.086;2022-11-20T04:49:05;12.05;;;3.78;;
68825;SDS011;55841;53.392;10.086;2022-11-20T04:51:31;9.70;;;3.20;;
68825;SDS011;55841;53.392;10.086;2022-11-20T04:53:57;10.35;;;3.42;;
68825;SDS011;55841;53.392;10.086;2022-11-20T04:56:23;9.00;;;3.35;;
68825;SDS011;55841;53.392;10.086;2022-11-20T04:58:48;10.35;;;3.65;;
68825;SDS011;55841;53.392;10.086;2022-11-20T05:01:16;10.00;;;3.22;;
68825;SDS011;55841;53.392;10.086;2022-11-20T05:03:46;8.75;;;3.25;;
68825;SDS011;55841;53.392;10.086;2022-11-20T05:06:12;9.80;;;3.60;;
68825;SDS011;55841;53.392;10.086;2022-11-20T05:08:40;11.30;;;3.90;;
68825;SDS011;55841;53.392;10.086;2022-11-20T05:11:09;9.85;;;3.58;;
68825;SDS011;55841;53.392;10.086;2022-11-20T05:16:06;10.20;;;3.13;;
68825;SDS011;55841;53.392;10.086;2022-11-20T05:18:34;11.93;;;3.80;;
68825;SDS011;55841;53.392;10.086;2022-11-20T05:21:00;12.95;;;3.38;;
68825;SDS011;55841;53.392;10.086;2022-11-20T05:23:26;10.07;;;3.67;;
68825;SDS011;55841;53.392;10.086;2022-11-20T05:25:54;10.70;;;3.78;;
68825;SDS011;55841;53.392;10.086;2022-11-20T05:28:20;9.05;;;3.42;;
68825;SDS011;55841;53.392;10.086;2022-11-20T05:30:46;10.60;;;3.92;;
68825;SDS011;55841;53.392;10.086;2022-11-20T05:33:11;12.00;;;3.88;;
68825;SDS011;55841;53.392;10.086;2022-11-20T05:35:37;11.35;;;4.10;;
68825;SDS011;55841;53.392;10.086;2022-11-20T05:38:02;9.98;;;3.60;;
68825;SDS011;55841;53.392;10.086;2022-11-20T05:40:28;11.45;;;4.10;;
68825;SDS011;55841;53.392;10.086;2022-11-20T05:42:53;10.52;;;3.65;;
68825;SDS011;55841;53.392;10.086;2022-11-20T05:45:19;12.90;;;3.78;;
68825;SDS011;55841;53.392;10.086;2022-11-20T05:47:44;9.57;;;3.67;;
68825;SDS011;55841;53.392;10.086;2022-11-20T05:50:10;11.00;;;3.90;;
68825;SDS011;55841;53.392;10.086;2022-11-20T05:52:35;12.95;;;3.72;;
68825;SDS011;55841;53.392;10.086;2022-11-20T05:55:01;10.32;;;3.55;;
68825;SDS011;55841;53.392;10.086;2022-11-20T05:57:26;10.23;;;4.20;;
68825;SDS011;55841;53.392;10.086;2022-11-20T05:59:52;10.65;;;3.83;;
68825;SDS011;55841;53.392;10.086;2022-11-20T06:02:17;12.48;;;4.18;;
68825;SDS011;55841;53.392;10.086;2022-11-20T06:04:43;10.48;;;3.55;;
68825;SDS011;55841;53.392;10.086;2022-11-20T06:07:08;11.95;;;4.03;;
68825;SDS011;55841;53.392;10.086;2022-11-20T06:09:34;9.95;;;3.78;;
68825;SDS011;55841;53.392;10.086;2022-11-20T06:11:59;12.38;;;3.85;;
68825;SDS011;55841;53.392;10.086;2022-11-20T06:14:25;12.38;;;4.50;;
68825;SDS011;55841;53.392;10.086;2022-11-20T06:16:50;11.32;;;3.97;;
68825;SDS011;55841;53.392;10.086;2022-11-20T06:19:15;9.63;;;3.95;;
68825;SDS011;55841;53.392;10.086;2022-11-20T06:21:41;14.48;;;4.30;;
68825;SDS011;55841;53.392;10.086;2022-11-20T06:24:08;11.60;;;4.60;;
68825;SDS011;55841;53.392;10.086;2022-11-20T06:26:34;13.63;;;4.80;;
68825;SDS011;55841;53.392;10.086;2022-11-20T06:29:00;11.65;;;4.30;;
68825;SDS011;55841;53.392;10.086;2022-11-20T06:31:25;11.68;;;4.35;;
68825;SDS011;55841;53.392;10.086;2022-11-20T06:33:51;11.73;;;4.22;;
68825;SDS011;55841;53.392;10.086;2022-11-20T06:36:18;11.73;;;3.92;;
68825;SDS011;55841;53.392;10.086;2022-11-20T06:38:45;13.00;;;4.45;;
68825;SDS011;55841;53.392;10.086;2022-11-20T06:41:12;11.00;;;4.20;;
68825;SDS011;55841;53.392;10.086;2022-11-20T06:43:39;12.40;;;4.40;;
68825;SDS011;55841;53.392;10.086;2022-11-20T06:46:05;11.55;;;4.78;;
68825;SDS011;55841;53.392;10.086;2022-11-20T06:48:31;13.93;;;4.72;;
68825;SDS011;55841;53.392;10.086;2022-11-20T06:50:56;13.35;;;4.85;;
68825;SDS011;55841;53.392;10.086;2022-11-20T06:53:23;11.43;;;4.40;;
68825;SDS011;55841;53.392;10.086;2022-11-20T06:55:49;12.45;;;4.82;;
68825;SDS011;55841;53.392;10.086;2022-11-20T06:58:15;11.85;;;4.63;;
68825;SDS011;55841;53.392;10.086;2022-11-20T07:00:41;12.27;;;4.60;;
68825;SDS011;55841;53.392;10.086;2022-11-20T07:03:08;13.35;;;4.50;;
68825;SDS011;55841;53.392;10.086;2022-11-20T07:05:35;14.25;;;5.15;;
68825;SDS011;55841;53.392;10.086;2022-11-20T07:08:01;11.38;;;4.68;;
68825;SDS011;55841;53.392;10.086;2022-11-20T07:10:27;12.52;;;4.72;;
68825;SDS011;55841;53.392;10.086;2022-11-20T07:12:53;11.80;;;4.43;;
68825;SDS011;55841;53.392;10.086;2022-11-20T07:15:19;13.57;;;5.18;;
68825;SDS011;55841;53.392;10.086;2022-11-20T07:17:46;12.85;;;5.13;;
68825;SDS011;55841;53.392;10.086;2022-11-20T07:20:13;14.30;;;4.90;;
68825;SDS011;55841;53.392;10.086;2022-11-20T07:22:39;13.65;;;4.90;;
68825;SDS011;55841;53.392;10.086;2022-11-20T07:25:05;11.65;;;4.70;;
68825;SDS011;55841;53.392;10.086;2022-11-20T07:27:31;15.75;;;5.43;;
68825;SDS011;55841;53.392;10.086;2022-11-20T07:29:57;11.93;;;4.50;;
68825;SDS011;55841;53.392;10.086;2022-11-20T07:32:22;11.63;;;4.35;;
68825;SDS011;55841;53.392;10.086;2022-11-20T07:34:48;12.73;;;5.00;;
68825;SDS011;55841;53.392;10.086;2022-11-20T07:37:14;14.32;;;5.53;;
68825;SDS011;55841;53.392;10.086;2022-11-20T07:39:40;11.75;;;4.28;;
68825;SDS011;55841;53.392;10.086;2022-11-20T07:42:06;17.55;;;5.32;;
68825;SDS011;55841;53.392;10.086;2022-11-20T07:44:32;13.27;;;5.20;;
68825;SDS011;55841;53.392;10.086;2022-11-20T07:46:57;12.57;;;4.90;;
68825;SDS011;55841;53.392;10.086;2022-11-20T07:49:23;12.05;;;4.70;;
68825;SDS011;55841;53.392;10.086;2022-11-20T07:51:51;12.85;;;4.47;;
68825;SDS011;55841;53.392;10.086;2022-11-20T07:54:17;12.23;;;5.30;;
68825;SDS011;55841;53.392;10.086;2022-11-20T07:56:43;13.10;;;4.65;;
68825;SDS011;55841;53.392;10.086;2022-11-20T07:59:08;14.55;;;4.68;;
68825;SDS011;55841;53.392;10.086;2022-11-20T08:01:33;12.20;;;5.05;;
68825;SDS011;55841;53.392;10.086;2022-11-20T08:03:59;12.52;;;5.03;;
68825;SDS011;55841;53.392;10.086;2022-11-20T08:06:24;12.63;;;4.80;;
68825;SDS011;55841;53.392;10.086;2022-11-20T08:08:50;11.73;;;4.65;;
68825;SDS011;55841;53.392;10.086;2022-11-20T08:11:16;13.10;;;5.10;;
68825;SDS011;55841;53.392;10.086;2022-11-20T08:13:41;13.18;;;5.28;;
68825;SDS011;55841;53.392;10.086;2022-11-20T08:16:07;13.27;;;4.78;;
68825;SDS011;55841;53.392;10.086;2022-11-20T08:18:32;13.05;;;4.88;;
68825;SDS011;55841;53.392;10.086;2022-11-20T08:21:01;10.50;;;4.15;;
68825;SDS011;55841;53.392;10.086;2022-11-20T08:23:28;13.30;;;4.72;;
68825;SDS011;55841;53.392;10.086;2022-11-20T08:25:53;13.73;;;4.90;;
68825;SDS011;55841;53.392;10.086;2022-11-20T08:28:19;11.40;;;4.30;;
68825;SDS011;55841;53.392;10.086;2022-11-20T08:30:44;17.48;;;5.15;;
68825;SDS011;55841;53.392;10.086;2022-11-20T08:33:09;12.55;;;4.90;;
68825;SDS011;55841;53.392;10.086;2022-11-20T08:35:35;10.88;;;4.28;;
68825;SDS011;55841;53.392;10.086;2022-11-20T08:38:02;12.70;;;5.00;;
68825;SDS011;55841;53.392;10.086;2022-11-20T08:40:32;12.05;;;4.60;;
68825;SDS011;55841;53.392;10.086;2022-11-20T08:42:58;12.95;;;4.60;;
68825;SDS011;55841;53.392;10.086;2022-11-20T08:45:23;11.07;;;4.30;;
68825;SDS011;55841;53.392;10.086;2022-11-20T08:47:49;12.57;;;4.05;;
68825;SDS011;55841;53.392;10.086;2022-11-20T08:50:15;10.68;;;3.78;;
68825;SDS011;55841;53.392;10.086;2022-11-20T08:52:41;11.07;;;3.85;;
68825;SDS011;55841;53.392;10.086;2022-11-20T08:55:07;11.25;;;3.92;;
68825;SDS011;55841;53.392;10.086;2022-11-20T08:57:34;13.30;;;3.88;;
68825;SDS011;55841;53.392;10.086;2022-11-20T09:00:01;10.20;;;3.65;;
68825;SDS011;55841;53.392;10.086;2022-11-20T09:02:28;11.80;;;3.95;;
68825;SDS011;55841;53.392;10.086;2022-11-20T09:04:53;10.27;;;3.92;;
68825;SDS011;55841;53.392;10.086;2022-11-20T09:07:19;10.68;;;3.92;;
68825;SDS011;55841;53.392;10.086;2022-11-20T09:09:45;10.50;;;3.60;;
68825;SDS011;55841;53.392;10.086;2022-11-20T09:12:10;12.10;;;4.55;;
68825;SDS011;55841;53.392;10.086;2022-11-20T09:14:36;12.25;;;4.30;;
68825;SDS011;55841;53.392;10.086;2022-11-20T09:17:01;10.48;;;3.53;;
68825;SDS011;55841;53.392;10.086;2022-11-20T09:19:27;12.40;;;4.10;;
68825;SDS011;55841;53.392;10.086;2022-11-20T09:21:53;10.80;;;3.60;;
68825;SDS011;55841;53.392;10.086;2022-11-20T09:24:18;9.68;;;3.15;;
68825;SDS011;55841;53.392;10.086;2022-11-20T09:26:44;13.15;;;3.85;;
68825;SDS011;55841;53.392;10.086;2022-11-20T09:29:09;12.38;;;4.20;;
68825;SDS011;55841;53.392;10.086;2022-11-20T09:31:35;12.10;;;3.90;;
68825;SDS011;55841;53.392;10.086;2022-11-20T09:34:00;10.40;;;3.65;;
68825;SDS011;55841;53.392;10.086;2022-11-20T09:36:26;9.55;;;3.95;;
68825;SDS011;55841;53.392;10.086;2022-11-20T09:38:51;12.63;;;4.68;;
68825;SDS011;55841;53.392;10.086;2022-11-20T09:41:29;13.63;;;3.88;;
68825;SDS011;55841;53.392;10.086;2022-11-20T09:46:37;13.13;;;4.70;;
68825;SDS011;55841;53.392;10.086;2022-11-20T09:54:18;11.23;;;4.40;;
68825;SDS011;55841;53.392;10.086;2022-11-20T09:56:50;10.82;;;4.80;;
68825;SDS011;55841;53.392;10.086;2022-11-20T09:59:31;8.25;;;3.15;;
68825;SDS011;55841;53.392;10.086;2022-11-20T10:02:12;10.18;;;3.58;;
68825;SDS011;55841;53.392;10.086;2022-11-20T10:04:48;12.27;;;4.22;;
68825;SDS011;55841;53.392;10.086;2022-11-20T10:07:38;9.02;;;3.33;;
68825;SDS011;55841;53.392;10.086;2022-11-20T10:15:38;10.25;;;4.00;;
68825;SDS011;55841;53.392;10.086;2022-11-20T10:25:57;9.40;;;3.72;;
68825;SDS011;55841;53.392;10.086;2022-11-20T10:31:44;10.00;;;3.38;;
68825;SDS011;55841;53.392;10.086;2022-11-20T10:34:18;9.70;;;2.95;;
68825;SDS011;55841;53.392;10.086;2022-11-20T10:36:54;8.07;;;3.25;;
68825;SDS011;55841;53.392;10.086;2022-11-20T10:39:37;9.88;;;3.58;;
68825;SDS011;55841;53.392;10.086;2022-11-20T10:42:17;10.65;;;3.53;;
68825;SDS011;55841;53.392;10.086;2022-11-20T10:44:58;10.30;;;3.60;;
68825;SDS011;55841;53.392;10.086;2022-11-20T10:47:46;11.07;;;3.28;;
68825;SDS011;55841;53.392;10.086;2022-11-20T10:50:14;8.90;;;3.33;;
68825;SDS011;55841;53.392;10.086;2022-11-20T10:53:00;8.43;;;3.15;;
68825;SDS011;55841;53.392;10.086;2022-11-20T10:55:48;8.32;;;2.90;;
68825;SDS011;55841;53.392;10.086;2022-11-20T10:58:29;7.68;;;2.50;;
68825;SDS011;55841;53.392;10.086;2022-11-20T11:01:23;8.20;;;2.55;;
68825;SDS011;55841;53.392;10.086;2022-11-20T11:03:49;5.50;;;2.30;;
68825;SDS011;55841;53.392;10.086;2022-11-20T11:09:08;5.55;;;2.13;;
68825;SDS011;55841;53.392;10.086;2022-11-20T11:11:40;6.63;;;2.38;;
68825;SDS011;55841;53.392;10.086;2022-11-20T11:16:35;7.90;;;2.55;;
68825;SDS011;55841;53.392;10.086;2022-11-20T11:19:13;5.68;;;1.95;;
68825;SDS011;55841;53.392;10.086;2022-11-20T11:21:43;5.72;;;2.35;;
68825;SDS011;55841;53.392;10.086;2022-11-20T11:24:23;6.57;;;2.33;;
68825;SDS011;55841;53.392;10.086;2022-11-20T11:27:00;7.95;;;2.30;;
68825;SDS011;55841;53.392;10.086;2022-11-20T11:29:27;4.93;;;2.00;;
68825;SDS011;55841;53.392;10.086;2022-11-20T11:32:02;4.63;;;2.05;;
68825;SDS011;55841;53.392;10.086;2022-11-20T11:34:32;7.10;;;2.03;;
68825;SDS011;55841;53.392;10.086;2022-11-20T11:36:58;8.38;;;2.88;;
68825;SDS011;55841;53.392;10.086;2022-11-20T11:39:26;5.90;;;2.20;;
68825;SDS011;55841;53.392;10.086;2022-11-20T11:41:53;7.22;;;2.03;;
68825;SDS011;55841;53.392;10.086;2022-11-20T11:44:20;6.07;;;2.25;;
68825;SDS011;55841;53.392;10.086;2022-11-20T11:46:53;5.78;;;1.98;;
68825;SDS011;55841;53.392;10.086;2022-11-20T11:49:20;6.05;;;1.73;;
68825;SDS011;55841;53.392;10.086;2022-11-20T11:57:03;9.82;;;3.17;;
68825;SDS011;55841;53.392;10.086;2022-11-20T11:59:47;9.48;;;2.80;;
68825;SDS011;55841;53.392;10.086;2022-11-20T12:02:27;8.32;;;2.53;;
68825;SDS011;55841;53.392;10.086;2022-11-20T12:05:45;11.18;;;4.07;;
68825;SDS011;55841;53.392;10.086;2022-11-20T12:16:07;7.55;;;2.38;;
68825;SDS011;55841;53.392;10.086;2022-11-20T12:18:38;8.38;;;2.67;;
68825;SDS011;55841;53.392;10.086;2022-11-20T12:29:50;5.43;;;2.03;;
68825;SDS011;55841;53.392;10.086;2022-11-20T12:43:29;4.63;;;2.00;;
68825;SDS011;55841;53.392;10.086;2022-11-20T12:45:51;5.32;;;2.10;;
68825;SDS011;55841;53.392;10.086;2022-11-20T12:56:56;5.20;;;2.00;;
68825;SDS011;55841;53.392;10.086;2022-11-20T13:07:26;5.53;;;2.20;;
68825;SDS011;55841;53.392;10.086;2022-11-20T13:09:53;6.95;;;2.30;;
68825;SDS011;55841;53.392;10.086;2022-11-20T13:12:27;6.60;;;2.20;;
68825;SDS011;55841;53.392;10.086;2022-11-20T13:15:07;6.47;;;2.30;;
68825;SDS011;55841;53.392;10.086;2022-11-20T13:20:19;6.22;;;2.20;;
68825;SDS011;55841;53.392;10.086;2022-11-20T13:22:49;6.28;;;2.35;;
68825;SDS011;55841;53.392;10.086;2022-11-20T13:25:32;4.53;;;1.80;;
68825;SDS011;55841;53.392;10.086;2022-11-20T13:28:00;4.57;;;1.80;;
68825;SDS011;55841;53.392;10.086;2022-11-20T13:30:29;4.10;;;1.92;;
68825;SDS011;55841;53.392;10.086;2022-11-20T13:40:29;4.72;;;1.75;;
68825;SDS011;55841;53.392;10.086;2022-11-20T13:45:28;6.50;;;1.70;;
68825;SDS011;55841;53.392;10.086;2022-11-20T13:47:55;4.55;;;1.55;;
68825;SDS011;55841;53.392;10.086;2022-11-20T13:50:31;3.78;;;1.60;;
68825;SDS011;55841;53.392;10.086;2022-11-20T13:53:23;4.80;;;1.45;;
68825;SDS011;55841;53.392;10.086;2022-11-20T13:56:03;5.70;;;2.13;;
68825;SDS011;55841;53.392;10.086;2022-11-20T13:58:44;3.67;;;1.60;;
68825;SDS011;55841;53.392;10.086;2022-11-20T14:01:21;5.65;;;1.95;;
68825;SDS011;55841;53.392;10.086;2022-11-20T14:03:49;4.68;;;1.75;;
68825;SDS011;55841;53.392;10.086;2022-11-20T14:08:52;3.92;;;1.60;;
68825;SDS011;55841;53.392;10.086;2022-11-20T14:11:19;4.82;;;1.80;;
68825;SDS011;55841;53.392;10.086;2022-11-20T14:13:51;5.63;;;1.75;;
68825;SDS011;55841;53.392;10.086;2022-11-20T14:16:38;4.93;;;1.73;;
68825;SDS011;55841;53.392;10.086;2022-11-20T14:22:16;4.28;;;1.70;;
68825;SDS011;55841;53.392;10.086;2022-11-20T14:24:38;5.30;;;1.80;;
68825;SDS011;55841;53.392;10.086;2022-11-20T14:27:04;6.38;;;1.80;;
68825;SDS011;55841;53.392;10.086;2022-11-20T14:29:33;5.60;;;1.95;;
68825;SDS011;55841;53.392;10.086;2022-11-20T14:32:01;4.82;;;1.73;;
68825;SDS011;55841;53.392;10.086;2022-11-20T14:37:03;5.93;;;2.00;;
68825;SDS011;55841;53.392;10.086;2022-11-20T14:39:34;5.18;;;1.80;;
68825;SDS011;55841;53.392;10.086;2022-11-20T14:42:01;4.07;;;1.77;;
68825;SDS011;55841;53.392;10.086;2022-11-20T14:44:37;4.03;;;1.63;;
68825;SDS011;55841;53.392;10.086;2022-11-20T14:47:03;4.75;;;1.83;;
68825;SDS011;55841;53.392;10.086;2022-11-20T14:49:30;4.50;;;1.90;;
68825;SDS011;55841;53.392;10.086;2022-11-20T14:51:59;6.35;;;1.73;;
68825;SDS011;55841;53.392;10.086;2022-11-20T14:55:13;4.32;;;1.75;;
68825;SDS011;55841;53.392;10.086;2022-11-20T15:00:34;7.53;;;2.20;;
68825;SDS011;55841;53.392;10.086;2022-11-20T15:07:45;7.10;;;2.65;;
68825;SDS011;55841;53.392;10.086;2022-11-20T15:10:19;7.95;;;2.45;;
68825;SDS011;55841;53.392;10.086;2022-11-20T15:15:21;7.63;;;2.58;;
68825;SDS011;55841;53.392;10.086;2022-11-20T15:17:56;6.07;;;2.15;;
68825;SDS011;55841;53.392;10.086;2022-11-20T15:20:24;7.80;;;2.50;;
68825;SDS011;55841;53.392;10.086;2022-11-20T15:22:52;8.55;;;2.65;;
68825;SDS011;55841;53.392;10.086;2022-11-20T15:25:17;6.40;;;2.58;;
68825;SDS011;55841;53.392;10.086;2022-11-20T15:27:44;8.38;;;2.67;;
68825;SDS011;55841;53.392;10.086;2022-11-20T15:30:14;6.63;;;2.45;;
68825;SDS011;55841;53.392;10.086;2022-11-20T15:32:42;8.85;;;2.63;;
68825;SDS011;55841;53.392;10.086;2022-11-20T15:35:08;9.32;;;2.95;;
68825;SDS011;55841;53.392;10.086;2022-11-20T15:37:34;6.65;;;2.63;;
68825;SDS011;55841;53.392;10.086;2022-11-20T15:40:00;7.53;;;2.53;;
68825;SDS011;55841;53.392;10.086;2022-11-20T15:42:26;11.55;;;3.40;;
68825;SDS011;55841;53.392;10.086;2022-11-20T15:44:51;10.38;;;3.42;;
68825;SDS011;55841;53.392;10.086;2022-11-20T15:47:17;7.57;;;2.63;;
68825;SDS011;55841;53.392;10.086;2022-11-20T15:49:45;8.48;;;3.03;;
68825;SDS011;55841;53.392;10.086;2022-11-20T15:52:10;9.00;;;3.10;;
68825;SDS011;55841;53.392;10.086;2022-11-20T15:54:36;7.45;;;2.72;;
68825;SDS011;55841;53.392;10.086;2022-11-20T15:57:02;7.35;;;2.53;;
68825;SDS011;55841;53.392;10.086;2022-11-20T15:59:27;9.02;;;2.97;;
68825;SDS011;55841;53.392;10.086;2022-11-20T16:01:53;8.65;;;2.78;;
68825;SDS011;55841;53.392;10.086;2022-11-20T16:04:18;8.55;;;2.67;;
68825;SDS011;55841;53.392;10.086;2022-11-20T16:06:44;6.78;;;2.70;;
68825;SDS011;55841;53.392;10.086;2022-11-20T16:09:10;10.13;;;2.90;;
68825;SDS011;55841;53.392;10.086;2022-11-20T16:11:35;8.80;;;3.10;;
68825;SDS011;55841;53.392;10.086;2022-11-20T16:14:02;8.88;;;3.00;;
68825;SDS011;55841;53.392;10.086;2022-11-20T16:18:56;8.20;;;2.55;;
68825;SDS011;55841;53.392;10.086;2022-11-20T16:21:22;9.50;;;3.20;;
68825;SDS011;55841;53.392;10.086;2022-11-20T16:23:47;8.07;;;2.83;;
68825;SDS011;55841;53.392;10.086;2022-11-20T16:26:14;8.65;;;2.80;;
68825;SDS011;55841;53.392;10.086;2022-11-20T16:28:41;9.10;;;2.75;;
68825;SDS011;55841;53.392;10.086;2022-11-20T16:31:13;9.95;;;2.83;;
68825;SDS011;55841;53.392;10.086;2022-11-20T16:33:43;8.45;;;3.20;;
68825;SDS011;55841;53.392;10.086;2022-11-20T16:36:17;9.20;;;3.10;;
68825;SDS011;55841;53.392;10.086;2022-11-20T16:38:44;10.52;;;3.58;;